Time;durP1;ratioP1;P1;durP2;ratioP2;P2;SDS_P1;SDS_P2;PMS_P1;PMS_P2;Temp;Humidity;BMP_temperature;BMP_pressure;BME280_temperature;BME280_humidity;BME280_pressure;Samples;Min_cycle;Max_cycle;Signal;HPM_P1;HPM_P2
2023/07/19 00:01:45;;;;;;;7.72;3.80;;;20.60;71.50;;;;;;5048937;28;20032;-69
2023/07/19 00:04:31;;;;;;;7.20;4.47;;;20.50;71.50;;;;;;5050497;28;20041;-68
2023/07/19 00:07:17;;;;;;;6.78;4.45;;;20.50;72.00;;;;;;5051895;28;20095;-68
2023/07/19 00:10:05;;;;;;;7.35;3.72;;;20.50;72.40;;;;;;5052189;28;20045;-68
2023/07/19 00:12:51;;;;;;;7.25;3.70;;;20.40;72.70;;;;;;5052048;28;20079;-68
2023/07/19 00:15:37;;;;;;;7.80;4.35;;;20.40;72.90;;;;;;5051279;28;20063;-69
2023/07/19 00:18:23;;;;;;;8.15;3.88;;;20.40;73.00;;;;;;5057842;28;20082;-68
2023/07/19 00:21:09;;;;;;;4.80;2.92;;;20.40;73.20;;;;;;5066925;28;20082;-67
2023/07/19 00:23:55;;;;;;;6.10;3.65;;;20.30;73.20;;;;;;5053716;28;20072;-66
2023/07/19 00:26:41;;;;;;;4.65;3.13;;;20.30;73.40;;;;;;5061939;28;20039;-66
2023/07/19 00:29:26;;;;;;;6.18;3.33;;;20.30;73.40;;;;;;5063005;28;20116;-66
2023/07/19 00:32:12;;;;;;;5.70;2.90;;;20.30;73.50;;;;;;5069363;28;20495;-66
2023/07/19 00:34:58;;;;;;;4.68;3.35;;;20.20;73.40;;;;;;5056801;28;20556;-66
2023/07/19 00:37:44;;;;;;;5.22;3.60;;;20.20;73.50;;;;;;5055164;28;20072;-65
2023/07/19 00:40:32;;;;;;;7.18;3.40;;;20.20;73.50;;;;;;5062254;28;20051;-66
2023/07/19 00:43:19;;;;;;;5.95;2.90;;;20.20;73.60;;;;;;5050904;28;20197;-66
2023/07/19 00:46:07;;;;;;;6.53;3.30;;;20.20;73.50;;;;;;5051225;28;20028;-65
2023/07/19 00:48:53;;;;;;;6.63;3.05;;;20.10;73.50;;;;;;5051706;28;20505;-65
2023/07/19 00:51:40;;;;;;;6.35;3.17;;;20.10;73.50;;;;;;5051273;28;20488;-67
2023/07/19 00:54:27;;;;;;;8.38;3.67;;;20.10;73.50;;;;;;5048738;28;20035;-67
2023/07/19 00:57:13;;;;;;;7.05;3.13;;;20.00;73.50;;;;;;5048968;28;20094;-66
2023/07/19 01:00:00;;;;;;;4.93;2.88;;;20.00;73.40;;;;;;5048589;28;20044;-65
2023/07/19 01:02:46;;;;;;;4.95;3.03;;;20.00;73.00;;;;;;5070850;28;20481;-65
2023/07/19 01:05:32;;;;;;;6.28;3.15;;;19.90;73.10;;;;;;5050497;28;20036;-66
2023/07/19 01:08:19;;;;;;;7.32;3.10;;;19.90;73.40;;;;;;5050485;28;20037;-65
2023/07/19 01:11:05;;;;;;;5.93;2.92;;;19.90;73.80;;;;;;5051687;28;20065;-65
2023/07/19 01:13:55;;;;;;;5.30;3.30;;;19.90;73.20;;;;;;5039948;28;20037;-65
2023/07/19 01:16:41;;;;;;;5.20;2.92;;;19.80;73.40;;;;;;5050746;28;20044;-65
2023/07/19 01:19:27;;;;;;;5.68;2.83;;;19.80;73.70;;;;;;5039986;28;20036;-65
2023/07/19 01:22:13;;;;;;;4.10;2.50;;;19.80;73.90;;;;;;5069702;28;20538;-65
2023/07/19 01:24:59;;;;;;;7.10;2.67;;;19.80;74.00;;;;;;5051386;28;20087;-65
2023/07/19 01:27:45;;;;;;;7.75;3.10;;;19.70;74.20;;;;;;5050339;28;20433;-65
2023/07/19 01:30:31;;;;;;;5.25;3.08;;;19.70;74.30;;;;;;5053640;28;20043;-65
2023/07/19 01:33:17;;;;;;;4.45;2.70;;;19.70;74.30;;;;;;5050423;28;20041;-65
2023/07/19 01:36:03;;;;;;;7.47;2.88;;;19.60;74.60;;;;;;5050936;28;20040;-65
2023/07/19 01:38:49;;;;;;;5.72;2.95;;;19.60;74.50;;;;;;5053904;28;20452;-65
2023/07/19 01:41:35;;;;;;;5.50;2.90;;;19.60;74.80;;;;;;5045915;28;20095;-65
2023/07/19 01:44:22;;;;;;;4.95;2.65;;;19.70;75.00;;;;;;5059854;28;20076;-64
2023/07/19 01:47:09;;;;;;;5.20;2.40;;;19.70;74.90;;;;;;5049954;28;20036;-64
2023/07/19 01:49:55;;;;;;;4.25;2.63;;;19.70;74.90;;;;;;5055972;28;20115;-64
2023/07/19 01:52:41;;;;;;;4.57;2.15;;;19.70;74.80;;;;;;5049689;28;20036;-64
2023/07/19 01:55:27;;;;;;;4.40;2.13;;;19.70;74.60;;;;;;5067287;28;20074;-64
2023/07/19 01:58:12;;;;;;;5.47;2.25;;;19.80;74.50;;;;;;5041932;28;20120;-64
2023/07/19 02:00:58;;;;;;;6.63;3.17;;;19.70;74.10;;;;;;5057682;28;20482;-66
2023/07/19 02:03:44;;;;;;;2.58;1.90;;;19.70;74.20;;;;;;5048707;28;20504;-66
2023/07/19 02:06:30;;;;;;;2.88;2.10;;;19.70;74.10;;;;;;5049287;28;20029;-65
2023/07/19 02:09:16;;;;;;;4.65;2.30;;;19.70;74.00;;;;;;5056680;28;20040;-66
2023/07/19 02:12:02;;;;;;;3.20;1.92;;;19.70;74.20;;;;;;5047850;28;20035;-65
2023/07/19 02:14:48;;;;;;;6.40;2.13;;;19.80;74.20;;;;;;5055339;28;20041;-65
2023/07/19 02:17:34;;;;;;;5.63;2.22;;;19.70;73.90;;;;;;5048511;28;20485;-67
2023/07/19 02:20:20;;;;;;;5.35;2.50;;;19.70;73.80;;;;;;5065861;28;20488;-65
2023/07/19 02:23:06;;;;;;;4.00;2.08;;;19.70;73.90;;;;;;5059909;28;20133;-66
2023/07/19 02:25:52;;;;;;;4.55;2.38;;;19.70;73.90;;;;;;5050330;28;20052;-66
2023/07/19 02:28:38;;;;;;;2.88;1.90;;;19.70;73.90;;;;;;5057824;28;20052;-64
2023/07/19 02:31:24;;;;;;;4.93;2.78;;;19.60;73.90;;;;;;5068628;28;20071;-65
2023/07/19 02:34:10;;;;;;;3.85;2.22;;;19.60;73.90;;;;;;5060363;28;20028;-66
2023/07/19 02:36:57;;;;;;;4.45;2.58;;;19.60;74.00;;;;;;5049358;28;20053;-65
2023/07/19 02:39:43;;;;;;;4.47;2.05;;;19.60;74.00;;;;;;5048841;28;20044;-65
2023/07/19 02:42:29;;;;;;;3.10;2.00;;;19.60;74.10;;;;;;5047166;28;20391;-66
2023/07/19 02:45:15;;;;;;;4.88;1.63;;;19.60;74.10;;;;;;5048989;28;20379;-65
2023/07/19 02:48:01;;;;;;;2.85;2.10;;;19.60;74.10;;;;;;5054889;28;20040;-66
2023/07/19 02:50:48;;;;;;;5.28;2.13;;;19.60;73.90;;;;;;5050312;28;20043;-65
2023/07/19 02:53:35;;;;;;;4.60;1.73;;;19.60;73.90;;;;;;5056657;28;20033;-66
2023/07/19 02:56:20;;;;;;;3.47;2.30;;;19.60;73.90;;;;;;5057110;28;20029;-65
2023/07/19 02:59:06;;;;;;;4.03;2.42;;;19.60;74.00;;;;;;5058654;28;20406;-66
2023/07/19 03:01:52;;;;;;;3.15;2.00;;;19.60;73.90;;;;;;5041400;28;20032;-66
2023/07/19 03:04:38;;;;;;;4.80;2.03;;;19.60;73.80;;;;;;5057611;28;20390;-66
2023/07/19 03:07:24;;;;;;;3.55;1.80;;;19.60;73.70;;;;;;5053937;28;20056;-66
2023/07/19 03:10:10;;;;;;;2.17;1.70;;;19.60;73.80;;;;;;5058643;28;20044;-66
2023/07/19 03:12:56;;;;;;;3.03;1.70;;;19.60;73.80;;;;;;5052620;28;20508;-66
2023/07/19 03:15:45;;;;;;;4.40;2.03;;;19.70;73.90;;;;;;5053202;28;20040;-67
2023/07/19 03:18:31;;;;;;;3.22;2.00;;;19.70;74.00;;;;;;5057513;28;20029;-65
2023/07/19 03:21:20;;;;;;;1.90;1.60;;;19.70;74.00;;;;;;5052588;28;20033;-66
2023/07/19 03:24:06;;;;;;;4.70;1.70;;;19.70;73.50;;;;;;5052136;28;20044;-66
2023/07/19 03:26:52;;;;;;;3.17;1.90;;;19.80;73.20;;;;;;5051841;28;20033;-65
2023/07/19 03:29:38;;;;;;;11.32;2.42;;;19.90;73.40;;;;;;5058439;28;20541;-66
2023/07/19 03:32:24;;;;;;;3.38;1.58;;;19.90;73.20;;;;;;5061709;28;20075;-66
2023/07/19 03:35:10;;;;;;;4.75;2.17;;;19.90;73.10;;;;;;5055092;28;20486;-65
2023/07/19 03:37:56;;;;;;;5.53;2.20;;;19.90;72.70;;;;;;5052179;28;20044;-66
2023/07/19 03:40:42;;;;;;;4.10;2.10;;;20.00;72.70;;;;;;5052381;28;20568;-68
2023/07/19 03:43:28;;;;;;;2.33;1.85;;;20.00;72.60;;;;;;5051111;28;21042;-69
2023/07/19 03:46:14;;;;;;;2.97;1.95;;;20.00;72.60;;;;;;5055368;28;20062;-68
2023/07/19 03:49:00;;;;;;;5.18;2.33;;;20.00;72.60;;;;;;5062357;28;20602;-68
2023/07/19 03:51:46;;;;;;;4.65;2.10;;;20.00;72.70;;;;;;5051488;28;20662;-68
2023/07/19 03:54:32;;;;;;;3.17;1.80;;;20.00;72.70;;;;;;5051568;28;20064;-68
2023/07/19 03:57:18;;;;;;;2.55;1.52;;;20.10;72.60;;;;;;5054056;28;20025;-67
2023/07/19 04:00:04;;;;;;;4.10;1.98;;;20.10;72.60;;;;;;5055902;28;20037;-68
2023/07/19 04:02:50;;;;;;;2.58;1.55;;;20.20;72.70;;;;;;5055685;28;20041;-68
2023/07/19 04:05:36;;;;;;;2.97;1.90;;;20.30;72.70;;;;;;5055844;28;20110;-69
2023/07/19 04:08:22;;;;;;;3.15;1.80;;;20.30;72.60;;;;;;5064768;28;20103;-68
2023/07/19 04:11:08;;;;;;;3.80;1.90;;;20.30;72.60;;;;;;5052353;28;20041;-68
2023/07/19 04:13:54;;;;;;;3.20;1.65;;;20.40;72.60;;;;;;5052065;28;20051;-69
2023/07/19 04:16:41;;;;;;;2.58;1.80;;;20.40;72.40;;;;;;5051817;28;20139;-72
2023/07/19 04:19:26;;;;;;;5.65;2.08;;;20.50;72.60;;;;;;5049849;28;20083;-71
2023/07/19 04:22:12;;;;;;;5.18;2.28;;;20.50;72.50;;;;;;5060488;28;20040;-71
2023/07/19 04:24:58;;;;;;;3.08;1.75;;;20.50;71.90;;;;;;5051645;28;20044;-69
2023/07/19 04:27:46;;;;;;;4.38;1.85;;;20.60;71.80;;;;;;5054829;28;21620;-69
2023/07/19 04:30:32;;;;;;;3.30;1.90;;;20.60;71.50;;;;;;5029260;28;20680;-69
2023/07/19 04:33:19;;;;;;;3.83;1.55;;;20.70;71.10;;;;;;5037275;28;20091;-69
2023/07/19 04:36:15;;;;;;;2.75;1.77;;;20.70;70.90;;;;;;5053061;28;20036;-69
2023/07/19 04:39:01;;;;;;;2.90;1.60;;;20.70;70.80;;;;;;5058051;28;20040;-69
2023/07/19 04:41:47;;;;;;;3.00;1.65;;;20.80;71.20;;;;;;5067558;28;20024;-69
2023/07/19 04:44:33;;;;;;;4.90;1.80;;;20.80;70.50;;;;;;5058785;28;20486;-68
2023/07/19 04:47:19;;;;;;;3.00;1.50;;;20.90;70.70;;;;;;5060977;28;20032;-65
2023/07/19 04:50:08;;;;;;;1.95;1.52;;;20.90;70.60;;;;;;5043119;28;20040;-66
2023/07/19 04:52:54;;;;;;;3.03;1.60;;;20.90;70.10;;;;;;5063858;28;20088;-67
2023/07/19 04:55:42;;;;;;;2.60;1.50;;;21.00;70.20;;;;;;5069056;28;20040;-67
2023/07/19 04:58:28;;;;;;;4.15;1.50;;;21.00;70.30;;;;;;5067496;28;20521;-67
2023/07/19 05:01:14;;;;;;;18.83;1.60;;;21.00;70.30;;;;;;5049842;28;20047;-67
2023/07/19 05:04:00;;;;;;;4.78;1.83;;;21.10;70.20;;;;;;5053929;28;20044;-67
2023/07/19 05:06:46;;;;;;;2.33;1.50;;;21.10;70.30;;;;;;5054952;28;20051;-67
2023/07/19 05:09:32;;;;;;;3.25;1.65;;;21.20;70.30;;;;;;5058594;28;20041;-67
2023/07/19 05:12:18;;;;;;;2.35;1.50;;;21.20;70.20;;;;;;5050789;28;20028;-68
2023/07/19 05:15:04;;;;;;;4.97;1.67;;;21.30;70.10;;;;;;5060993;28;20036;-68
2023/07/19 05:17:50;;;;;;;2.83;1.60;;;21.30;70.20;;;;;;5050567;28;20044;-68
2023/07/19 05:20:36;;;;;;;4.15;1.70;;;21.40;70.30;;;;;;5064959;28;20041;-68
2023/07/19 05:23:22;;;;;;;2.72;1.63;;;21.40;70.20;;;;;;5070166;28;20140;-66
2023/07/19 05:26:08;;;;;;;2.00;1.20;;;21.50;70.40;;;;;;5056781;28;20613;-66
2023/07/19 05:28:55;;;;;;;2.55;1.23;;;21.60;70.30;;;;;;5061347;28;20127;-69
2023/07/19 05:31:41;;;;;;;5.15;1.52;;;21.70;69.80;;;;;;5056494;28;20033;-65
2023/07/19 05:34:27;;;;;;;2.45;1.63;;;21.70;69.60;;;;;;5048488;28;20043;-66
2023/07/19 05:37:13;;;;;;;2.78;1.98;;;21.70;69.50;;;;;;5050110;28;20049;-68
2023/07/19 05:39:59;;;;;;;2.50;1.73;;;21.80;69.30;;;;;;5056453;28;20047;-70
2023/07/19 05:42:45;;;;;;;4.65;1.60;;;21.90;70.10;;;;;;5074338;28;20063;-70
2023/07/19 05:45:31;;;;;;;5.82;1.88;;;21.90;69.30;;;;;;5059948;28;20108;-70
2023/07/19 05:48:18;;;;;;;5.28;2.10;;;22.00;69.00;;;;;;5050746;28;20045;-71
2023/07/19 05:51:07;;;;;;;2.58;1.65;;;22.10;69.00;;;;;;5048340;28;20116;-70
2023/07/19 05:53:54;;;;;;;6.80;2.03;;;22.10;69.00;;;;;;5047694;28;20044;-71
2023/07/19 05:56:40;;;;;;;3.58;1.90;;;22.20;69.20;;;;;;5057713;28;20063;-70
2023/07/19 05:59:26;;;;;;;5.47;2.20;;;22.30;69.40;;;;;;5057138;28;20041;-70
2023/07/19 06:02:12;;;;;;;2.85;1.67;;;22.40;68.90;;;;;;5067857;28;20058;-70
2023/07/19 06:04:58;;;;;;;4.47;1.58;;;22.50;69.00;;;;;;5053186;28;20512;-70
2023/07/19 06:07:45;;;;;;;4.47;1.52;;;22.60;69.20;;;;;;5053207;28;20033;-68
2023/07/19 06:10:31;;;;;;;3.75;1.73;;;22.70;68.80;;;;;;5064557;28;20029;-68
2023/07/19 06:13:16;;;;;;;3.92;1.88;;;22.80;68.60;;;;;;5057489;28;20033;-68
2023/07/19 06:16:03;;;;;;;3.80;1.88;;;22.90;68.60;;;;;;5043206;28;20079;-68
2023/07/19 06:18:49;;;;;;;3.45;1.60;;;22.90;68.50;;;;;;5049956;28;20040;-69
2023/07/19 06:21:35;;;;;;;4.65;2.33;;;23.00;68.30;;;;;;5062989;28;20024;-72
2023/07/19 06:24:21;;;;;;;3.90;1.55;;;23.10;68.30;;;;;;5056516;28;20072;-72
2023/07/19 06:27:07;;;;;;;2.38;1.70;;;23.20;67.80;;;;;;5054015;28;20470;-71
2023/07/19 06:29:53;;;;;;;3.40;1.67;;;23.30;67.10;;;;;;5053831;28;20036;-74
2023/07/19 06:32:39;;;;;;;3.05;1.63;;;23.40;66.50;;;;;;5056274;28;20461;-74
2023/07/19 06:35:25;;;;;;;2.10;1.50;;;23.50;66.30;;;;;;5052454;28;20033;-73
2023/07/19 06:38:10;;;;;;;5.95;1.80;;;23.50;66.70;;;;;;5056919;28;20071;-73
2023/07/19 06:41:03;;;;;;;4.38;1.95;;;23.60;65.90;;;;;;5049114;28;20068;-72
2023/07/19 06:43:49;;;;;;;3.75;1.60;;;23.70;65.60;;;;;;5057394;28;20048;-72
2023/07/19 06:46:35;;;;;;;3.08;1.90;;;23.70;65.30;;;;;;5071710;28;20035;-73
2023/07/19 06:49:21;;;;;;;4.15;2.50;;;23.80;65.10;;;;;;5056802;28;20575;-75
2023/07/19 06:52:07;;;;;;;5.40;2.58;;;23.90;65.10;;;;;;5054249;28;20088;-75
2023/07/19 06:54:53;;;;;;;8.02;2.28;;;23.90;65.70;;;;;;5058272;28;20328;-73
2023/07/19 06:57:39;;;;;;;3.25;1.63;;;23.90;65.60;;;;;;5063506;28;20450;-74
2023/07/19 07:00:25;;;;;;;4.28;1.80;;;23.90;64.90;;;;;;5040196;28;20048;-72
2023/07/19 07:03:11;;;;;;;5.57;2.22;;;23.90;65.20;;;;;;5064061;28;20036;-77
2023/07/19 07:05:58;;;;;;;4.15;2.22;;;24.00;65.20;;;;;;5056301;28;20504;-77
2023/07/19 07:08:44;;;;;;;9.95;1.98;;;24.10;64.70;;;;;;5068082;28;20462;-73
2023/07/19 07:11:30;;;;;;;2.97;1.60;;;24.10;64.10;;;;;;5054719;28;20045;-76
2023/07/19 07:14:16;;;;;;;4.47;1.80;;;24.20;64.30;;;;;;5060583;28;20044;-73
2023/07/19 07:17:02;;;;;;;5.15;1.80;;;24.30;65.10;;;;;;5059268;28;20565;-73
2023/07/19 07:19:48;;;;;;;4.00;1.90;;;24.40;65.10;;;;;;5058279;28;20091;-73
2023/07/19 07:22:34;;;;;;;3.55;1.65;;;24.50;65.10;;;;;;5055501;28;20056;-73
2023/07/19 07:25:20;;;;;;;3.63;1.80;;;24.60;64.30;;;;;;5054752;28;20063;-73
2023/07/19 07:28:06;;;;;;;13.30;2.55;;;24.60;64.20;;;;;;5054760;28;20067;-72
2023/07/19 07:30:52;;;;;;;8.43;2.60;;;24.70;64.50;;;;;;5058931;28;20029;-72
2023/07/19 07:33:39;;;;;;;10.00;1.92;;;24.70;64.60;;;;;;5052543;28;20036;-73
2023/07/19 07:36:25;;;;;;;5.10;2.00;;;24.80;64.00;;;;;;5055457;28;20569;-73
2023/07/19 07:39:11;;;;;;;4.05;1.52;;;24.80;64.30;;;;;;5048299;28;20039;-79
2023/07/19 07:41:57;;;;;;;6.85;2.40;;;24.90;63.90;;;;;;5043205;28;20028;-76
2023/07/19 07:44:43;;;;;;;12.05;3.63;;;24.90;64.10;;;;;;5054991;28;20067;-72
2023/07/19 07:47:29;;;;;;;7.47;2.45;;;25.00;63.60;;;;;;5064796;28;20398;-79
2023/07/19 07:50:19;;;;;;;8.00;1.65;;;25.00;63.60;;;;;;5056421;28;20040;-78
2023/07/19 07:53:05;;;;;;;3.03;1.85;;;25.00;63.40;;;;;;5053906;28;20047;-76
2023/07/19 07:55:51;;;;;;;2.63;1.85;;;25.10;63.70;;;;;;5046083;28;20025;-75
2023/07/19 07:58:37;;;;;;;3.22;1.60;;;25.10;63.20;;;;;;5052910;28;20041;-72
2023/07/19 08:01:23;;;;;;;4.72;1.60;;;25.20;63.30;;;;;;5067099;28;20032;-71
2023/07/19 08:04:10;;;;;;;4.55;1.58;;;25.30;63.40;;;;;;5056677;28;20497;-71
2023/07/19 08:06:56;;;;;;;3.53;1.95;;;25.40;62.90;;;;;;5061150;28;20470;-72
2023/07/19 08:09:41;;;;;;;4.95;2.28;;;25.50;62.90;;;;;;5061948;28;20029;-71
2023/07/19 08:12:28;;;;;;;5.88;2.38;;;25.70;63.10;;;;;;5053838;28;20021;-71
2023/07/19 08:15:14;;;;;;;7.75;2.72;;;25.80;62.50;;;;;;5051882;28;20032;-72
2023/07/19 08:18:00;;;;;;;32.90;5.72;;;25.90;61.80;;;;;;5050154;28;20037;-72
2023/07/19 08:20:46;;;;;;;27.00;5.93;;;25.90;61.30;;;;;;5052568;28;20385;-71
2023/07/19 08:23:32;;;;;;;28.20;4.68;;;26.00;61.20;;;;;;5053653;28;20048;-71
2023/07/19 08:26:18;;;;;;;15.77;3.25;;;26.00;61.50;;;;;;5054659;28;20382;-71
2023/07/19 08:29:04;;;;;;;8.07;2.28;;;26.00;60.80;;;;;;5058373;28;20119;-71
2023/07/19 08:31:50;;;;;;;7.70;2.60;;;26.00;60.70;;;;;;5075606;28;20857;-72
2023/07/19 08:34:36;;;;;;;6.10;3.35;;;26.00;60.80;;;;;;5046941;28;20025;-72
2023/07/19 08:37:21;;;;;;;10.13;2.20;;;26.10;61.50;;;;;;5060987;28;20051;-72
2023/07/19 08:40:08;;;;;;;5.68;2.75;;;26.10;60.40;;;;;;5048975;28;20040;-72
2023/07/19 08:42:54;;;;;;;9.30;4.80;;;26.20;60.60;;;;;;5058501;28;20090;-67
2023/07/19 08:45:40;;;;;;;5.18;2.75;;;26.30;61.10;;;;;;5052630;28;20025;-67
2023/07/19 08:48:26;;;;;;;4.32;2.25;;;26.40;60.50;;;;;;5050109;28;20037;-67
2023/07/19 08:51:14;;;;;;;9.77;2.97;;;26.40;60.20;;;;;;5052485;28;20055;-67
2023/07/19 08:54:00;;;;;;;18.73;3.13;;;26.60;60.10;;;;;;5050369;28;20432;-66
2023/07/19 08:56:46;;;;;;;7.50;2.55;;;26.80;59.50;;;;;;5030809;28;20444;-66
2023/07/19 08:59:32;;;;;;;9.45;3.35;;;26.80;59.10;;;;;;5054447;28;20059;-67
2023/07/19 09:02:17;;;;;;;5.30;2.00;;;27.00;59.40;;;;;;5055833;28;20052;-67
2023/07/19 09:05:09;;;;;;;3.72;1.80;;;27.10;58.90;;;;;;5047542;28;20041;-67
2023/07/19 09:07:59;;;;;;;3.20;1.63;;;27.10;58.00;;;;;;5058464;28;20029;-67
2023/07/19 09:10:46;;;;;;;2.75;1.42;;;27.20;57.40;;;;;;5049104;28;20045;-67
2023/07/19 09:13:33;;;;;;;5.32;2.97;;;27.30;56.90;;;;;;5053408;28;20772;-70
2023/07/19 09:16:26;;;;;;;7.95;3.90;;;27.30;56.80;;;;;;5054754;28;20243;-68
2023/07/19 09:19:12;;;;;;;6.93;3.42;;;27.40;56.70;;;;;;5052756;28;20036;-68
2023/07/19 09:22:03;;;;;;;7.10;2.33;;;27.40;56.30;;;;;;5051157;28;20116;-67
2023/07/19 09:24:54;;;;;;;4.75;2.13;;;27.40;56.30;;;;;;5041486;28;20546;-67
2023/07/19 09:27:41;;;;;;;4.13;2.08;;;27.40;56.40;;;;;;5049794;28;20036;-67
2023/07/19 09:30:27;;;;;;;8.25;2.25;;;27.30;56.00;;;;;;5058051;28;20031;-68
2023/07/19 09:33:17;;;;;;;5.53;1.73;;;27.30;56.00;;;;;;5057712;28;20024;-68
2023/07/19 09:36:03;;;;;;;5.13;2.85;;;27.30;55.90;;;;;;5041096;28;20039;-68
2023/07/19 09:38:49;;;;;;;3.38;2.08;;;27.20;56.00;;;;;;5057553;28;20566;-68
2023/07/19 09:41:37;;;;;;;4.75;2.30;;;27.20;55.80;;;;;;5052562;28;20125;-69
2023/07/19 09:44:23;;;;;;;5.28;2.92;;;27.20;55.60;;;;;;5055284;28;20465;-67
2023/07/19 09:47:10;;;;;;;10.02;3.00;;;27.20;56.60;;;;;;5057581;28;20072;-67
2023/07/19 09:49:57;;;;;;;4.15;2.30;;;27.20;56.00;;;;;;5051075;28;20036;-67
2023/07/19 09:52:46;;;;;;;3.90;2.42;;;27.30;56.30;;;;;;5053979;28;20044;-67
2023/07/19 09:55:33;;;;;;;13.65;3.17;;;27.30;55.80;;;;;;5064184;28;20038;-68
2023/07/19 09:58:21;;;;;;;11.18;2.58;;;27.30;55.50;;;;;;5058113;28;20033;-68
2023/07/19 10:01:07;;;;;;;5.22;1.98;;;27.40;55.10;;;;;;5055854;28;20455;-67
2023/07/19 10:03:53;;;;;;;4.15;1.50;;;27.40;55.20;;;;;;5056452;28;20041;-68
2023/07/19 10:06:40;;;;;;;3.55;1.95;;;27.50;55.00;;;;;;5053697;28;20044;-67
2023/07/19 10:09:44;;;;;;;4.78;2.17;;;27.60;55.50;;;;;;5057237;28;20040;-68
2023/07/19 10:12:31;;;;;;;19.75;3.63;;;27.70;55.30;;;;;;5049459;28;20189;-67
2023/07/19 10:15:20;;;;;;;7.18;1.70;;;27.90;55.10;;;;;;5049543;28;20528;-69
2023/07/19 10:18:12;;;;;;;7.75;2.78;;;28.00;54.90;;;;;;5054351;28;20040;-70
2023/07/19 10:21:03;;;;;;;3.28;2.00;;;28.00;54.70;;;;;;5040903;28;20087;-71
2023/07/19 10:24:06;;;;;;;14.07;1.73;;;28.00;53.90;;;;;;5048498;28;20296;-71
2023/07/19 10:26:52;;;;;;;3.80;2.25;;;27.80;53.60;;;;;;5063941;28;20029;-71
2023/07/19 10:29:45;;;;;;;6.22;1.85;;;27.70;54.00;;;;;;5048239;28;20040;-68
2023/07/19 10:32:31;;;;;;;8.35;2.35;;;27.80;54.10;;;;;;5051050;28;20143;-71
2023/07/19 10:35:30;;;;;;;5.93;2.08;;;27.80;54.10;;;;;;5050789;28;20040;-71
2023/07/19 10:38:18;;;;;;;7.65;2.33;;;27.90;54.10;;;;;;5041313;28;20049;-71
2023/07/19 10:41:07;;;;;;;10.52;2.80;;;27.90;54.20;;;;;;5048965;28;20040;-64
2023/07/19 10:43:58;;;;;;;11.02;1.90;;;27.90;54.40;;;;;;5049552;28;20047;-73
2023/07/19 10:46:45;;;;;;;29.33;4.90;;;28.00;54.80;;;;;;5052339;28;20083;-68
2023/07/19 10:49:31;;;;;;;16.48;3.03;;;28.10;55.20;;;;;;5049822;28;20041;-70
2023/07/19 10:52:21;;;;;;;2.70;1.90;;;28.10;55.00;;;;;;5066265;28;20051;-71
2023/07/19 10:55:07;;;;;;;2.70;1.60;;;28.10;55.00;;;;;;5053770;28;20055;-71
2023/07/19 10:57:53;;;;;;;2.80;1.52;;;28.10;54.20;;;;;;5052611;28;20091;-70
2023/07/19 11:00:43;;;;;;;4.10;1.75;;;28.20;54.20;;;;;;5062022;28;20047;-70
2023/07/19 11:03:29;;;;;;;4.40;2.20;;;28.10;54.10;;;;;;5059640;28;20056;-70
2023/07/19 11:06:15;;;;;;;5.38;1.70;;;28.10;53.90;;;;;;5046811;28;20037;-70
2023/07/19 11:09:08;;;;;;;4.78;2.20;;;28.10;53.30;;;;;;5040695;28;20070;-71
2023/07/19 11:11:54;;;;;;;42.63;7.78;;;28.10;53.50;;;;;;5050157;28;20048;-70
2023/07/19 11:14:42;;;;;;;25.80;3.70;;;28.00;53.40;;;;;;5055979;28;20033;-71
2023/07/19 11:17:30;;;;;;;12.10;3.78;;;28.10;54.00;;;;;;5050647;28;20134;-70
2023/07/19 11:20:27;;;;;;;5.90;2.13;;;28.10;53.60;;;;;;5047980;28;20389;-70
2023/07/19 11:23:14;;;;;;;10.40;2.63;;;28.10;53.90;;;;;;5055037;28;20063;-70
2023/07/19 11:26:07;;;;;;;6.28;1.77;;;28.10;54.40;;;;;;5050317;28;20024;-70
2023/07/19 11:28:56;;;;;;;19.38;4.18;;;28.00;53.70;;;;;;5049071;28;20059;-70
2023/07/19 11:31:41;;;;;;;39.25;5.15;;;28.10;54.50;;;;;;5054595;28;20055;-71
2023/07/19 11:34:27;;;;;;;7.07;2.60;;;28.20;54.40;;;;;;5040131;28;20029;-76
2023/07/19 11:37:36;;;;;;;4.65;2.00;;;28.30;54.20;;;;;;5070571;28;20044;-74
2023/07/19 11:40:24;;;;;;;5.25;1.55;;;28.30;53.90;;;;;;5061564;28;20425;-73
2023/07/19 11:43:10;;;;;;;9.05;1.92;;;28.30;53.20;;;;;;5051086;28;20480;-73
2023/07/19 11:45:56;;;;;;;3.42;1.58;;;28.40;53.40;;;;;;5046594;28;20036;-73
2023/07/19 11:48:43;;;;;;;6.68;1.60;;;28.40;53.70;;;;;;5045437;28;20040;-73
2023/07/19 11:51:28;;;;;;;4.32;2.10;;;28.50;53.90;;;;;;5036150;28;20504;-75
2023/07/19 11:54:15;;;;;;;3.10;1.75;;;28.40;53.50;;;;;;5047480;28;20473;-75
2023/07/19 11:57:01;;;;;;;7.35;1.98;;;28.40;53.30;;;;;;5046155;28;20075;-71
2023/07/19 11:59:48;;;;;;;3.05;1.40;;;28.40;52.80;;;;;;5044537;28;20047;-73
2023/07/19 12:02:36;;;;;;;14.45;3.15;;;28.30;52.60;;;;;;5057094;28;20107;-72
2023/07/19 12:05:26;;;;;;;10.32;2.50;;;28.30;52.90;;;;;;5045472;28;20170;-72
2023/07/19 12:08:12;;;;;;;3.45;2.13;;;28.30;53.60;;;;;;5043832;28;20493;-75
2023/07/19 12:11:01;;;;;;;3.65;1.75;;;28.30;53.20;;;;;;5044535;28;20036;-74
2023/07/19 12:13:48;;;;;;;4.72;1.60;;;28.20;53.60;;;;;;5046932;28;20117;-76
2023/07/19 12:16:33;;;;;;;3.00;1.88;;;28.20;53.80;;;;;;5048470;28;20112;-74
2023/07/19 12:19:20;;;;;;;1.38;1.23;;;28.10;53.20;;;;;;5048036;28;20434;-74
2023/07/19 12:22:06;;;;;;;2.88;1.70;;;28.10;53.50;;;;;;5044257;28;20482;-71
2023/07/19 12:24:52;;;;;;;7.18;2.00;;;28.10;52.80;;;;;;5044141;28;20073;-72
2023/07/19 12:27:38;;;;;;;5.65;1.92;;;28.10;52.80;;;;;;5043232;28;20039;-73
2023/07/19 12:30:25;;;;;;;4.20;2.15;;;28.10;53.40;;;;;;5043501;28;21817;-72
2023/07/19 12:33:11;;;;;;;3.90;2.00;;;28.00;53.80;;;;;;5044658;28;20035;-72
2023/07/19 12:35:57;;;;;;;12.20;2.63;;;27.90;53.80;;;;;;5044091;28;20118;-73
2023/07/19 12:38:43;;;;;;;3.60;1.95;;;27.80;54.60;;;;;;5044912;28;20045;-72
2023/07/19 12:41:29;;;;;;;2.80;1.70;;;27.80;54.30;;;;;;5044174;28;20520;-73
2023/07/19 12:44:15;;;;;;;3.55;1.95;;;27.90;54.40;;;;;;5045993;28;20125;-74
2023/07/19 12:47:02;;;;;;;7.25;2.17;;;27.80;54.20;;;;;;5044169;28;20025;-73
2023/07/19 12:49:48;;;;;;;3.58;2.35;;;27.80;54.20;;;;;;5029931;28;20151;-71
2023/07/19 12:52:36;;;;;;;2.92;1.77;;;27.80;54.30;;;;;;5044155;28;20481;-73
2023/07/19 12:55:22;;;;;;;6.50;1.75;;;27.90;54.30;;;;;;5044924;28;20107;-72
2023/07/19 12:58:08;;;;;;;3.10;1.23;;;27.90;54.40;;;;;;5043965;28;20478;-72
2023/07/19 13:00:53;;;;;;;2.67;1.70;;;27.90;54.40;;;;;;5046195;28;20048;-72
2023/07/19 13:03:40;;;;;;;3.72;1.90;;;28.00;54.00;;;;;;5045358;28;20055;-73
2023/07/19 13:06:27;;;;;;;3.80;1.77;;;28.00;54.40;;;;;;5048321;28;20849;-73
2023/07/19 13:09:13;;;;;;;5.85;2.00;;;28.00;54.00;;;;;;5027800;28;20433;-73
2023/07/19 13:11:59;;;;;;;2.60;1.60;;;27.90;54.00;;;;;;5044257;28;20490;-73
2023/07/19 13:14:45;;;;;;;5.03;2.00;;;28.10;54.10;;;;;;5045126;28;20036;-70
2023/07/19 13:17:30;;;;;;;2.80;1.75;;;28.10;53.70;;;;;;5033275;28;20029;-73
2023/07/19 13:20:16;;;;;;;5.07;1.95;;;28.10;53.50;;;;;;5043807;28;20749;-71
2023/07/19 13:23:02;;;;;;;4.65;2.50;;;28.10;53.50;;;;;;5043188;28;20041;-68
2023/07/19 13:25:48;;;;;;;3.15;1.75;;;28.10;53.80;;;;;;5045524;28;20512;-74
2023/07/19 13:28:34;;;;;;;3.50;1.83;;;28.00;53.60;;;;;;5044875;28;20287;-73
2023/07/19 13:31:20;;;;;;;3.30;2.17;;;27.80;53.70;;;;;;5043979;28;20033;-73
2023/07/19 13:34:06;;;;;;;5.93;1.88;;;27.80;54.20;;;;;;5044789;28;20119;-75
2023/07/19 13:36:52;;;;;;;2.60;1.80;;;27.80;54.20;;;;;;5045112;28;20329;-73
2023/07/19 13:39:38;;;;;;;3.45;1.90;;;27.70;54.00;;;;;;5044326;28;20037;-71
2023/07/19 13:42:25;;;;;;;3.58;1.85;;;27.70;54.00;;;;;;5042778;28;20076;-75
2023/07/19 13:45:12;;;;;;;3.45;2.03;;;27.80;54.00;;;;;;5035150;28;20542;-71
2023/07/19 13:47:58;;;;;;;4.30;1.95;;;28.00;54.30;;;;;;5034117;28;20044;-78
2023/07/19 13:50:44;;;;;;;3.33;1.60;;;28.20;54.00;;;;;;5048074;28;20120;-82
2023/07/19 13:53:30;;;;;;;3.42;1.65;;;28.30;53.60;;;;;;5041531;28;20040;-79
2023/07/19 13:56:16;;;;;;;3.40;2.15;;;28.30;53.40;;;;;;5035333;28;20084;-77
2023/07/19 13:59:02;;;;;;;2.63;1.55;;;28.30;53.60;;;;;;5043470;28;20060;-77
2023/07/19 14:01:48;;;;;;;2.85;1.85;;;28.20;53.60;;;;;;5051521;28;20449;-74
2023/07/19 14:04:34;;;;;;;9.98;2.38;;;28.10;53.90;;;;;;5048846;28;20044;-75
2023/07/19 14:07:20;;;;;;;3.22;1.90;;;28.00;54.00;;;;;;5064642;28;20037;-74
2023/07/19 14:10:07;;;;;;;3.25;1.75;;;28.00;54.00;;;;;;5052427;28;20064;-73
2023/07/19 14:12:53;;;;;;;3.05;1.80;;;28.00;54.30;;;;;;5051979;28;20469;-72
2023/07/19 14:15:39;;;;;;;3.25;1.90;;;28.20;54.20;;;;;;5049286;28;20543;-75
2023/07/19 14:18:26;;;;;;;5.60;2.30;;;28.20;54.30;;;;;;5054462;28;20033;-74
2023/07/19 14:21:12;;;;;;;3.13;1.60;;;28.20;54.80;;;;;;5052177;28;20096;-76
2023/07/19 14:23:57;;;;;;;3.10;2.20;;;28.30;54.70;;;;;;5048034;28;20140;-75
2023/07/19 14:26:44;;;;;;;3.75;1.90;;;28.30;54.60;;;;;;5051233;28;20112;-76